createdAt,value
2023-05-22T11:05:31.214Z,25.78
2023-05-22T11:06:45.821Z,25.87
2023-05-22T11:07:48.792Z,25.95
2023-05-22T11:08:50.650Z,26.02
2023-05-22T11:10:00.780Z,26.07
2023-05-22T11:11:13.564Z,25.97
2023-05-22T11:12:25.005Z,25.92
2023-05-22T11:13:29.330Z,25.87
2023-05-22T11:14:31.518Z,25.76
2023-05-22T11:15:33.387Z,25.64
2023-05-22T11:16:38.984Z,25.53
2023-05-22T11:17:51.616Z,25.51
2023-05-22T11:19:21.943Z,25.50
2023-05-22T11:20:26.013Z,25.49
2023-05-22T11:21:30.091Z,25.53
2023-05-22T11:22:38.882Z,25.57
2023-05-22T11:23:41.679Z,25.59
2023-05-22T11:24:43.658Z,25.61
2023-05-22T11:25:45.658Z,25.64
2023-05-22T11:27:05.649Z,25.61
2023-05-22T11:28:08.107Z,25.59
2023-05-22T11:29:10.925Z,25.61
2023-05-22T11:30:14.575Z,25.64
2023-05-22T11:31:18.809Z,25.66
2023-05-22T11:32:23.608Z,25.71
2023-05-22T11:33:26.631Z,25.73
2023-05-22T11:34:29.189Z,25.79
2023-05-22T11:35:31.368Z,25.84
2023-05-22T11:36:35.033Z,25.90
2023-05-22T11:37:40.952Z,25.93
2023-05-22T11:38:43.679Z,25.98
2023-05-22T11:39:57.612Z,26.00
2023-05-22T11:40:59.358Z,26.02
2023-05-22T11:42:01.382Z,26.05
2023-05-22T11:43:04.616Z,26.09
2023-05-22T11:44:09.039Z,26.12
2023-05-22T11:45:11.961Z,26.11
2023-05-22T11:46:14.934Z,26.05
2023-05-22T11:47:16.931Z,26.00
2023-05-22T11:48:21.107Z,25.93
2023-05-22T11:49:27.850Z,25.85
2023-05-22T11:50:41.662Z,25.81
2023-05-22T11:51:44.462Z,25.75
2023-05-22T11:52:46.719Z,25.71
2023-05-22T11:53:48.687Z,25.68
2023-05-22T11:54:53.105Z,25.71
2023-05-22T11:55:54.974Z,25.71
2023-05-22T11:56:56.931Z,25.74
2023-05-22T11:57:58.795Z,25.71
2023-05-22T11:59:00.603Z,25.71
2023-05-22T12:00:08.416Z,25.71
2023-05-22T12:01:10.701Z,25.72
2023-05-22T12:02:13.657Z,25.76
2023-05-22T12:03:17.372Z,25.82
2023-05-22T12:04:19.330Z,25.85
2023-05-22T12:05:22.055Z,25.87
2023-05-22T12:06:24.084Z,25.90
2023-05-22T12:07:27.728Z,25.93
2023-05-22T12:08:30.022Z,25.95
2023-05-22T12:09:32.092Z,25.97
2023-05-22T12:10:34.048Z,25.97
2023-05-22T12:11:36.684Z,26.04
2023-05-22T12:12:38.976Z,26.09
2023-05-22T12:13:41.256Z,26.14
2023-05-22T12:14:46.922Z,26.19
2023-05-22T12:15:48.730Z,26.22
2023-05-22T12:16:53.292Z,26.28
2023-05-22T12:17:56.401Z,26.32
2023-05-22T12:18:58.397Z,26.37
2023-05-22T12:20:00.405Z,26.39
2023-05-22T12:21:05.680Z,26.40
2023-05-22T12:22:10.072Z,26.42
2023-05-22T12:23:28.383Z,26.44
2023-05-22T12:24:51.601Z,26.40
2023-05-22T12:26:15.343Z,26.40
2023-05-22T12:27:17.116Z,26.28
2023-05-22T12:28:20.309Z,26.12
2023-05-22T12:29:23.701Z,26.00
2023-05-22T12:30:25.496Z,25.94
2023-05-22T12:31:27.517Z,25.89
2023-05-22T12:32:30.052Z,25.88
2023-05-22T12:33:32.136Z,25.91
2023-05-22T12:34:35.895Z,25.99
2023-05-22T12:35:38.876Z,26.07
2023-05-22T12:36:44.236Z,26.11
2023-05-22T12:37:51.444Z,26.10
2023-05-22T12:38:57.792Z,26.01
2023-05-22T12:40:04.418Z,25.99
2023-05-22T12:41:06.313Z,25.95
2023-05-22T12:42:08.678Z,25.93
2023-05-22T12:43:10.652Z,25.90
2023-05-22T12:44:15.483Z,25.86
2023-05-22T12:45:18.073Z,25.80
2023-05-22T12:46:20.059Z,25.78
2023-05-22T12:47:23.948Z,25.78
2023-05-22T12:48:26.005Z,25.82
2023-05-22T12:49:27.823Z,25.88
2023-05-22T12:50:29.688Z,25.97
2023-05-22T12:51:32.800Z,26.03
2023-05-22T12:52:35.816Z,26.03
2023-05-22T12:53:37.635Z,26.08
2023-05-22T12:54:39.455Z,26.11
2023-05-22T12:55:43.520Z,26.16
2023-05-22T12:56:45.366Z,26.19
2023-05-22T12:57:47.156Z,26.25
2023-05-22T12:58:49.079Z,26.32
2023-05-22T12:59:50.866Z,26.39
2023-05-22T13:00:52.828Z,26.40
2023-05-22T13:01:54.846Z,26.40
2023-05-22T13:02:57.230Z,26.40
2023-05-22T13:03:59.100Z,26.43
2023-05-22T13:05:00.919Z,26.46
2023-05-22T13:06:02.724Z,26.50
2023-05-22T13:07:04.799Z,26.49
2023-05-22T13:08:06.653Z,26.42
2023-05-22T13:09:08.443Z,26.37
2023-05-22T13:10:10.889Z,26.29
2023-05-22T13:11:12.968Z,26.29
2023-05-22T13:12:14.903Z,26.28
2023-05-22T13:13:17.170Z,26.30
2023-05-22T13:14:18.979Z,26.34
2023-05-22T13:15:20.966Z,26.37
2023-05-22T13:16:22.781Z,26.41
2023-05-22T13:17:26.247Z,26.42
2023-05-22T13:18:28.071Z,26.42
2023-05-22T13:19:30.021Z,26.40
2023-05-22T13:20:31.981Z,26.38
2023-05-22T13:21:33.965Z,26.36
2023-05-22T13:22:35.782Z,26.38
2023-05-22T13:23:37.606Z,26.39
2023-05-22T13:24:39.381Z,26.39
2023-05-22T13:25:41.882Z,26.39
2023-05-22T13:26:43.808Z,26.42
2023-05-22T13:27:46.237Z,26.42
2023-05-22T13:28:48.024Z,26.44
2023-05-22T13:29:49.918Z,26.45
2023-05-22T13:30:51.667Z,26.46
2023-05-22T13:31:53.434Z,26.48
2023-05-22T13:32:55.994Z,26.49
2023-05-22T13:33:57.862Z,26.49
2023-05-22T13:34:59.829Z,26.48
2023-05-22T13:36:01.627Z,26.46
2023-05-22T13:37:03.609Z,26.47
2023-05-22T13:38:05.552Z,26.46
2023-05-22T13:39:07.569Z,26.43
2023-05-22T13:40:11.098Z,26.46
2023-05-22T13:41:15.419Z,26.45
2023-05-22T13:42:17.921Z,26.41
2023-05-22T13:43:19.969Z,26.43
2023-05-22T13:44:22.217Z,26.42
2023-05-22T13:45:24.187Z,26.30
2023-05-22T13:46:26.227Z,26.23
2023-05-22T13:47:28.080Z,26.11
2023-05-22T13:48:30.261Z,26.01
2023-05-22T13:49:32.007Z,25.97
2023-05-22T13:50:33.793Z,25.96
2023-05-22T13:51:35.747Z,25.97
2023-05-22T13:52:38.042Z,26.00
2023-05-22T13:53:39.933Z,26.00
2023-05-22T13:54:41.725Z,25.99
2023-05-22T13:55:44.263Z,25.98
2023-05-22T13:56:46.329Z,25.99
2023-05-22T13:57:48.188Z,26.02
2023-05-22T13:58:49.962Z,26.05
2023-05-22T13:59:52.197Z,26.07
2023-05-22T14:00:53.986Z,26.08
2023-05-22T14:01:55.926Z,26.10
2023-05-22T14:02:57.951Z,26.11
2023-05-22T14:03:59.895Z,26.13
2023-05-22T14:05:01.726Z,26.15
2023-05-22T14:06:03.770Z,26.19
2023-05-22T14:07:05.662Z,26.21
2023-05-22T14:08:07.492Z,26.23
2023-05-22T14:09:09.564Z,26.24
2023-05-22T14:10:11.598Z,26.24
2023-05-22T14:11:13.419Z,26.26
2023-05-22T14:12:15.336Z,26.26
2023-05-22T14:13:17.145Z,26.25
2023-05-22T14:14:23.749Z,26.27
2023-05-22T14:15:25.830Z,26.25
2023-05-22T14:16:27.901Z,26.25
2023-05-22T14:17:29.776Z,26.26
2023-05-22T14:18:32.216Z,26.29
2023-05-22T14:19:34.147Z,26.29
2023-05-22T14:20:36.002Z,26.29
2023-05-22T14:21:37.774Z,26.30
2023-05-22T14:22:55.758Z,26.29
2023-05-22T14:23:59.137Z,26.30
2023-05-22T14:25:00.945Z,26.27
2023-05-22T14:26:02.920Z,26.27
2023-05-22T14:27:05.283Z,26.28
2023-05-22T14:28:07.053Z,26.27
2023-05-22T14:29:08.927Z,26.23
2023-05-22T14:30:13.513Z,26.22
2023-05-22T14:31:15.517Z,26.17
2023-05-22T14:32:17.469Z,26.14
2023-05-22T14:33:19.254Z,26.11
2023-05-22T14:34:21.075Z,26.09
2023-05-22T14:35:22.980Z,26.09
2023-05-22T14:36:24.877Z,26.10
2023-05-22T14:37:26.674Z,26.13
2023-05-22T14:38:35.254Z,26.14
2023-05-22T14:39:37.005Z,26.16
2023-05-22T14:40:38.790Z,26.16
2023-05-22T14:41:40.589Z,26.18
2023-05-22T14:42:42.557Z,26.19
2023-05-22T14:43:44.299Z,26.23
2023-05-22T14:44:46.116Z,26.25
2023-05-22T14:45:47.922Z,26.26
2023-05-22T14:46:51.333Z,26.27
2023-05-22T14:47:53.278Z,26.23
2023-05-22T14:48:55.268Z,26.23
2023-05-22T14:50:06.171Z,26.23
2023-05-22T14:51:21.232Z,26.23
2023-05-22T14:52:23.006Z,26.22
2023-05-22T14:53:25.117Z,26.23
2023-05-22T14:54:27.183Z,26.23
2023-05-22T14:55:28.983Z,26.26
2023-05-22T14:56:30.906Z,26.27
2023-05-22T14:57:32.816Z,26.28
2023-05-22T14:58:34.879Z,26.28
2023-05-22T14:59:36.672Z,26.21
2023-05-22T15:00:38.519Z,26.15
2023-05-22T15:01:40.512Z,26.08
2023-05-22T15:02:42.770Z,26.04
2023-05-22T15:03:44.894Z,26.02
2023-05-22T15:04:46.791Z,26.03
2023-05-22T15:05:48.642Z,26.04
2023-05-22T15:06:50.729Z,26.04
2023-05-22T15:07:52.515Z,26.04
2023-05-22T15:08:54.407Z,26.03
2023-05-22T15:09:56.466Z,26.00
2023-05-22T15:10:58.310Z,25.98
2023-05-22T15:12:00.169Z,25.97
2023-05-22T15:13:02.122Z,25.95
2023-05-22T15:14:03.990Z,25.94
2023-05-22T15:15:06.731Z,25.96
2023-05-22T15:16:08.585Z,25.95
2023-05-22T15:17:10.731Z,25.92
2023-05-22T15:18:13.301Z,25.88
2023-05-22T15:19:15.537Z,25.85
2023-05-22T15:20:17.529Z,25.84
2023-05-22T15:21:19.537Z,25.82
2023-05-22T15:22:21.334Z,25.79
2023-05-22T15:23:25.394Z,25.79
2023-05-22T15:24:29.418Z,25.79
2023-05-22T15:25:36.428Z,25.78
2023-05-22T15:26:38.349Z,25.77
2023-05-22T15:27:40.733Z,25.77
2023-05-22T15:28:42.623Z,25.76
2023-05-22T15:29:44.558Z,25.76
2023-05-22T15:30:46.605Z,25.75
2023-05-22T15:31:49.133Z,25.72
2023-05-22T15:32:51.527Z,25.72
2023-05-22T15:33:54.049Z,25.67
2023-05-22T15:34:56.145Z,25.68
2023-05-22T15:35:58.056Z,25.70
2023-05-22T15:36:59.994Z,25.66
2023-05-22T15:38:03.200Z,25.67
2023-05-22T15:39:05.722Z,25.67
2023-05-22T15:40:11.129Z,25.66
2023-05-22T15:41:13.411Z,25.66
2023-05-22T15:42:15.338Z,25.66
2023-05-22T15:43:17.317Z,25.65
2023-05-22T15:44:19.504Z,25.62
2023-05-22T15:45:21.850Z,25.62
2023-05-22T15:46:23.970Z,25.59
2023-05-22T15:47:26.031Z,25.59
2023-05-22T15:48:29.002Z,25.59
2023-05-22T15:49:31.516Z,25.56
2023-05-22T15:50:34.880Z,25.57
2023-05-22T15:51:37.210Z,25.53
2023-05-22T15:52:39.727Z,25.53
2023-05-22T15:53:41.722Z,25.49
2023-05-22T15:54:43.747Z,25.49
2023-05-22T15:55:46.930Z,25.47
2023-05-22T15:56:49.587Z,25.43
2023-05-22T15:57:51.916Z,25.43
2023-05-22T15:58:53.960Z,25.44
2023-05-22T15:59:56.379Z,25.43
2023-05-22T16:00:59.794Z,25.41
2023-05-22T16:02:01.864Z,25.40
2023-05-22T16:03:05.145Z,25.39
2023-05-22T16:04:07.082Z,25.38
2023-05-22T16:05:09.526Z,25.37
